Time;durP1;ratioP1;P1;durP2;ratioP2;P2;SDS_P1;SDS_P2;PMS_P1;PMS_P2;Temp;Humidity;BMP_temperature;BMP_pressure;BME280_temperature;BME280_humidity;BME280_pressure;Samples;Min_cycle;Max_cycle;Signal;HPM_P1;HPM_P2
2021/10/02 00:33:38;;;;;;;11.18;7.35;;;;;;;11.00;85.16;100385.87;2788148;83;21644;-72
2021/10/02 00:37:36;;;;;;;7.53;6.28;;;;;;;10.90;85.55;100378.27;2776891;84;21045;-72
2021/10/02 00:41:47;;;;;;;9.68;6.78;;;;;;;10.90;85.50;100380.92;2800266;83;21133;-71
2021/10/02 00:45:40;;;;;;;9.35;6.65;;;;;;;10.85;85.49;100376.47;2802561;83;21056;-71
2021/10/02 00:49:43;;;;;;;10.53;6.42;;;;;;;10.77;85.70;100370.91;2780873;85;21100;-70
2021/10/02 00:53:45;;;;;;;9.90;6.90;;;;;;;10.65;85.95;100376.75;2787018;85;21075;-72
2021/10/02 00:57:46;;;;;;;12.75;7.85;;;;;;;10.51;86.22;100370.72;2779536;84;21063;-72
2021/10/02 01:01:55;;;;;;;8.55;6.37;;;;;;;10.46;86.67;100369.42;2786035;83;21004;-72
2021/10/02 01:06:25;;;;;;;7.90;6.67;;;;;;;10.41;86.86;100355.98;2830638;82;21024;-73
2021/10/02 01:10:56;;;;;;;8.78;6.53;;;;;;;10.38;87.08;100346.89;2783165;84;21079;-72
2021/10/02 01:15:09;;;;;;;10.03;6.33;;;;;;;10.34;87.27;100346.78;2702820;86;21476;-72
2021/10/02 01:19:52;;;;;;;5.70;4.72;;;;;;;10.39;87.63;100341.94;2740339;85;21090;-73
2021/10/02 01:24:39;;;;;;;8.65;6.83;;;;;;;10.47;87.42;100339.20;2832837;83;21102;-72
2021/10/02 01:28:43;;;;;;;8.13;5.97;;;;;;;10.43;86.93;100338.12;2809724;83;21135;-72
2021/10/02 01:33:06;;;;;;;7.92;6.15;;;;;;;10.35;87.12;100345.81;2813132;83;21031;-72
2021/10/02 01:37:22;;;;;;;9.83;7.03;;;;;;;10.29;87.19;100352.46;2835579;83;21019;-72
2021/10/02 01:49:56;;;;;;;20.97;6.42;;;;;;;10.54;86.66;100345.70;2836235;83;21047;-73
2021/10/02 01:54:00;;;;;;;8.40;6.40;;;;;;;10.57;86.67;100344.11;2841366;81;21033;-73
2021/10/02 01:58:09;;;;;;;8.43;5.78;;;;;;;10.62;86.31;100337.96;2836504;82;21100;-73
2021/10/02 02:02:12;;;;;;;11.43;5.40;;;;;;;10.61;86.33;100337.60;2768549;85;21065;-73
2021/10/02 02:06:16;;;;;;;8.33;6.35;;;;;;;10.65;86.25;100343.02;2783702;84;21074;-72
2021/10/02 02:10:20;;;;;;;6.70;5.67;;;;;;;10.67;86.12;100334.43;2781139;84;21052;-73
2021/10/02 02:14:24;;;;;;;7.65;4.62;;;;;;;10.68;85.95;100328.14;2809378;83;21051;-73
2021/10/02 02:18:28;;;;;;;8.70;6.55;;;;;;;10.66;85.62;100329.22;2790402;83;21047;-73
2021/10/02 02:22:29;;;;;;;8.03;6.37;;;;;;;10.62;85.93;100327.79;2751788;84;21202;-73
2021/10/02 02:26:31;;;;;;;6.70;5.83;;;;;;;10.60;86.04;100323.91;2810852;83;21544;-73
2021/10/02 02:30:34;;;;;;;8.55;5.58;;;;;;;10.61;86.12;100326.96;2817192;83;21436;-73
2021/10/02 02:34:36;;;;;;;7.75;5.97;;;;;;;10.59;85.96;100323.55;2763024;84;21632;-73
2021/10/02 02:38:38;;;;;;;6.22;5.08;;;;;;;10.57;85.93;100325.50;2750198;84;21507;-73
2021/10/02 02:42:41;;;;;;;6.15;5.28;;;;;;;10.53;85.72;100316.08;2746113;86;21044;-73
2021/10/02 02:46:44;;;;;;;6.95;5.20;;;;;;;10.42;85.85;100315.16;2815841;83;21158;-73
2021/10/02 02:50:50;;;;;;;10.13;6.60;;;;;;;10.27;86.54;100318.51;2834683;83;21064;-73
2021/10/02 02:55:12;;;;;;;7.95;5.75;;;;;;;10.24;87.09;100309.95;2778928;84;21012;-73
2021/10/02 02:59:30;;;;;;;8.43;6.33;;;;;;;10.13;87.00;100311.64;2781584;83;21371;-73
2021/10/02 03:03:35;;;;;;;7.12;5.50;;;;;;;10.01;87.86;100316.59;2713723;86;21091;-73
2021/10/02 03:07:41;;;;;;;6.67;5.28;;;;;;;9.91;88.59;100315.15;2797355;83;21122;-73
2021/10/02 03:11:45;;;;;;;10.50;5.97;;;;;;;9.85;88.83;100316.50;2781348;83;21083;-73
2021/10/02 03:15:49;;;;;;;8.08;5.95;;;;;;;9.77;89.01;100316.73;2797216;84;21025;-73
2021/10/02 03:19:52;;;;;;;6.60;5.55;;;;;;;9.64;89.38;100316.35;2760383;83;21122;-73
2021/10/02 03:23:55;;;;;;;6.58;5.92;;;;;;;9.51;90.10;100308.49;2725419;85;21123;-73
2021/10/02 03:27:59;;;;;;;8.55;5.72;;;;;;;9.44;90.66;100309.94;2780907;84;21678;-73
2021/10/02 03:32:07;;;;;;;7.95;5.70;;;;;;;9.40;91.04;100304.02;2751931;84;21084;-73
2021/10/02 03:36:09;;;;;;;8.80;6.28;;;;;;;9.36;91.42;100303.89;2817733;83;21004;-73
2021/10/02 03:40:12;;;;;;;11.43;6.55;;;;;;;9.32;91.76;100298.42;2765468;84;21036;-73
2021/10/02 03:44:13;;;;;;;10.93;6.95;;;;;;;9.32;92.31;100302.91;2825585;83;21064;-73
2021/10/02 03:48:15;;;;;;;9.88;6.62;;;;;;;9.34;92.59;100300.52;2805325;83;21064;-73
2021/10/02 03:52:17;;;;;;;10.98;7.60;;;;;;;9.39;92.93;100298.80;2797210;83;21123;-73
2021/10/02 03:56:19;;;;;;;10.93;7.37;;;;;;;9.47;92.79;100285.80;2806444;83;21392;-73
2021/10/02 04:00:24;;;;;;;11.30;7.08;;;;;;;9.51;92.95;100285.92;2791318;84;21056;-73
2021/10/02 04:04:26;;;;;;;9.20;6.97;;;;;;;9.55;93.25;100283.38;2796277;84;20997;-72
2021/10/02 04:08:27;;;;;;;11.90;8.20;;;;;;;9.58;92.99;100287.63;2796706;83;21119;-73
2021/10/02 04:12:29;;;;;;;12.78;8.33;;;;;;;9.61;93.11;100287.84;2797421;83;21055;-73
2021/10/02 04:16:31;;;;;;;11.68;9.08;;;;;;;9.64;93.86;100287.64;2808779;83;21023;-74
2021/10/02 04:20:33;;;;;;;10.10;8.05;;;;;;;9.70;93.65;100292.46;2804940;83;21040;-73
2021/10/02 04:24:34;;;;;;;10.08;7.97;;;;;;;9.70;93.85;100283.98;2805674;83;21080;-73
2021/10/02 04:28:36;;;;;;;11.45;8.45;;;;;;;9.74;93.32;100288.59;2804052;83;21044;-73
2021/10/02 04:32:37;;;;;;;9.83;8.55;;;;;;;9.78;93.73;100290.03;2799494;83;21459;-73
2021/10/02 04:36:39;;;;;;;9.35;8.20;;;;;;;9.82;93.87;100292.80;2810269;83;20993;-74
2021/10/02 04:40:41;;;;;;;12.70;10.03;;;;;;;9.85;93.94;100294.39;2793046;84;21023;-74
2021/10/02 04:44:43;;;;;;;11.12;8.55;;;;;;;9.88;94.26;100294.14;2799241;83;21091;-73
2021/10/02 04:48:47;;;;;;;11.25;9.83;;;;;;;9.96;93.72;100301.51;2800710;83;21075;-74
2021/10/02 04:52:52;;;;;;;14.73;9.65;;;;;;;10.01;93.70;100296.66;2800116;83;21050;-74
2021/10/02 04:56:52;;;;;;;13.65;9.68;;;;;;;10.09;94.49;100297.39;2790927;83;21355;-74
2021/10/02 05:00:54;;;;;;;12.50;9.65;;;;;;;10.29;94.52;100292.64;2801647;83;21031;-74
2021/10/02 05:04:56;;;;;;;12.33;8.90;;;;;;;10.34;94.36;100296.77;2805942;83;21064;-74
2021/10/02 05:08:57;;;;;;;16.97;11.05;;;;;;;10.33;94.08;100289.26;2802540;83;21094;-74
2021/10/02 05:12:59;;;;;;;16.80;10.68;;;;;;;10.45;95.22;100293.27;2791585;84;21348;-74
2021/10/02 05:17:04;;;;;;;11.45;9.05;;;;;;;10.50;95.00;100287.08;2791314;84;21121;-74
2021/10/02 05:21:04;;;;;;;13.70;11.00;;;;;;;10.60;94.81;100289.33;2805761;83;21107;-73
2021/10/02 05:25:07;;;;;;;17.48;13.32;;;;;;;10.73;95.19;100293.66;2805546;83;21452;-74
2021/10/02 05:29:08;;;;;;;16.48;12.33;;;;;;;10.93;95.50;100294.17;2802533;83;21395;-74
2021/10/02 05:33:10;;;;;;;16.70;12.33;;;;;;;11.19;95.90;100285.80;2803574;83;21044;-74
2021/10/02 05:37:12;;;;;;;14.20;12.05;;;;;;;11.50;96.53;100299.69;2804406;83;21051;-74
2021/10/02 05:41:13;;;;;;;16.77;12.65;;;;;;;11.83;95.99;100297.25;2797415;83;21040;-74
2021/10/02 05:45:15;;;;;;;15.83;11.73;;;;;;;12.16;94.41;100289.59;2836177;83;21040;-74
2021/10/02 05:49:16;;;;;;;14.70;12.55;;;;;;;12.39;93.26;100287.07;2813835;83;21083;-73
2021/10/02 05:53:18;;;;;;;14.13;12.10;;;;;;;12.65;92.93;100285.20;2822997;82;21064;-74
2021/10/02 05:57:20;;;;;;;16.05;11.35;;;;;;;12.88;92.94;100287.58;2828341;82;21049;-74
2021/10/02 06:01:21;;;;;;;18.05;11.88;;;;;;;13.23;92.30;100290.64;2826559;82;21013;-74
2021/10/02 06:05:27;;;;;;;17.27;13.48;;;;;;;13.52;90.53;100291.94;2825915;82;21087;-74
2021/10/02 06:09:28;;;;;;;14.80;10.50;;;;;;;13.71;89.66;100299.55;2813593;84;21419;-74
2021/10/02 06:13:32;;;;;;;14.03;10.30;;;;;;;13.84;89.51;100298.73;2813812;83;21103;-73
2021/10/02 06:17:34;;;;;;;14.98;10.53;;;;;;;14.00;89.27;100299.94;2823763;82;21082;-73
2021/10/02 06:21:36;;;;;;;14.28;10.20;;;;;;;14.20;89.76;100295.32;2826097;83;21052;-74
2021/10/02 06:25:37;;;;;;;13.98;12.45;;;;;;;14.44;89.11;100293.91;2826372;82;21051;-73
2021/10/02 06:29:39;;;;;;;15.28;12.33;;;;;;;14.70;89.09;100302.04;2805163;83;21087;-74
2021/10/02 06:33:40;;;;;;;14.13;12.20;;;;;;;15.08;88.71;100301.06;2826960;82;21035;-73
2021/10/02 06:37:47;;;;;;;12.65;11.33;;;;;;;15.53;88.84;100305.43;2832919;82;21071;-73
2021/10/02 06:41:46;;;;;;;15.70;12.25;;;;;;;15.88;86.40;100309.95;2805337;82;21044;-73
2021/10/02 06:45:48;;;;;;;16.67;11.65;;;;;;;16.18;85.33;100304.58;2832301;82;21048;-74
2021/10/02 06:49:51;;;;;;;12.63;11.25;;;;;;;16.59;84.13;100296.30;2836995;81;21049;-74
2021/10/02 06:53:52;;;;;;;12.47;10.70;;;;;;;16.89;83.44;100300.20;2835595;83;21022;-73
2021/10/02 06:57:54;;;;;;;13.10;10.28;;;;;;;17.09;81.51;100298.06;2839001;83;20957;-73
2021/10/02 07:01:56;;;;;;;13.62;11.45;;;;;;;17.33;79.49;100300.39;2843129;81;21383;-73
2021/10/02 07:05:57;;;;;;;12.98;10.45;;;;;;;17.40;79.21;100287.97;2831617;83;21060;-73
2021/10/02 07:09:59;;;;;;;16.55;10.25;;;;;;;17.44;78.20;100294.34;2853981;82;21058;-74
2021/10/02 07:14:00;;;;;;;11.30;9.98;;;;;;;17.48;77.73;100285.73;2843257;81;21025;-72
2021/10/02 07:18:03;;;;;;;11.90;9.75;;;;;;;17.63;77.96;100291.77;2827046;81;21064;-73
2021/10/02 07:22:04;;;;;;;9.33;8.33;;;;;;;17.79;77.05;100298.97;2846944;81;21056;-73
2021/10/02 07:26:07;;;;;;;12.82;8.28;;;;;;;17.88;76.07;100295.72;2812747;82;21151;-74
2021/10/02 07:30:12;;;;;;;16.67;8.43;;;;;;;17.98;76.14;100290.49;2844068;82;21367;-73
2021/10/02 07:34:13;;;;;;;9.58;8.58;;;;;;;18.24;76.04;100288.04;2842094;83;21001;-73
2021/10/02 07:38:15;;;;;;;11.93;9.53;;;;;;;18.44;74.75;100280.01;2842787;83;21025;-73
2021/10/02 07:42:19;;;;;;;8.93;7.60;;;;;;;18.63;73.48;100278.20;2841750;81;21014;-73
2021/10/02 07:46:22;;;;;;;9.75;8.78;;;;;;;18.76;72.78;100279.47;2848416;81;21084;-73
2021/10/02 07:50:24;;;;;;;9.88;8.20;;;;;;;18.94;72.09;100285.39;2825019;83;21051;-72
2021/10/02 07:54:26;;;;;;;10.35;8.98;;;;;;;19.14;72.53;100279.52;2794878;82;21094;-73
2021/10/02 07:58:28;;;;;;;10.78;8.73;;;;;;;19.37;71.47;100286.72;2824504;83;21307;-71
2021/10/02 08:02:31;;;;;;;10.30;8.68;;;;;;;19.61;71.61;100282.09;2777115;84;21033;-71
2021/10/02 08:06:35;;;;;;;9.65;8.10;;;;;;;19.94;70.55;100281.22;2779807;84;21059;-72
2021/10/02 08:10:37;;;;;;;10.30;9.00;;;;;;;20.10;69.50;100280.19;2767491;83;21127;-74
2021/10/02 08:14:39;;;;;;;10.13;9.05;;;;;;;20.07;68.41;100283.27;2745761;84;21067;-73
2021/10/02 08:18:43;;;;;;;8.78;7.87;;;;;;;20.00;68.56;100278.28;2762758;83;21057;-72
2021/10/02 08:22:48;;;;;;;10.60;8.90;;;;;;;19.98;68.39;100278.49;2784468;83;21064;-72
2021/10/02 08:26:53;;;;;;;11.12;8.25;;;;;;;20.06;68.77;100284.30;2788665;84;21439;-72
2021/10/02 08:30:56;;;;;;;9.00;7.77;;;;;;;20.20;69.20;100280.39;2794318;84;21058;-72
2021/10/02 08:34:58;;;;;;;9.85;7.50;;;;;;;20.18;67.20;100274.34;2777691;83;21120;-72
2021/10/02 08:38:59;;;;;;;8.10;6.95;;;;;;;20.02;67.94;100270.01;2856709;82;21039;-77
2021/10/02 08:43:03;;;;;;;7.55;6.28;;;;;;;20.04;68.22;100264.72;2867889;82;20992;-71
2021/10/02 08:47:05;;;;;;;8.45;7.65;;;;;;;20.10;68.69;100269.39;2789314;84;21083;-71
2021/10/02 08:51:07;;;;;;;9.00;8.05;;;;;;;20.19;68.57;100267.91;2797032;84;21259;-71
2021/10/02 08:55:17;;;;;;;9.58;8.25;;;;;;;20.06;68.13;100266.75;2792652;83;21020;-71
2021/10/02 08:59:21;;;;;;;7.90;6.55;;;;;;;19.89;68.50;100274.17;2819838;82;21008;-71
2021/10/02 09:03:23;;;;;;;10.72;8.30;;;;;;;19.67;68.99;100265.17;2791172;81;21489;-71
2021/10/02 09:07:25;;;;;;;10.18;8.15;;;;;;;19.50;69.30;100259.95;2821988;82;21076;-71
2021/10/02 09:11:32;;;;;;;10.13;7.60;;;;;;;19.32;69.93;100260.30;2825162;82;21091;-70
2021/10/02 09:15:31;;;;;;;8.73;7.22;;;;;;;19.18;70.32;100256.56;2790183;81;21060;-71
2021/10/02 09:19:33;;;;;;;9.63;8.20;;;;;;;19.12;71.04;100257.30;2827477;81;21058;-71
2021/10/02 09:23:45;;;;;;;13.10;9.08;;;;;;;19.08;71.06;100266.26;2818739;84;21312;-71
2021/10/02 09:28:08;;;;;;;9.20;7.42;;;;;;;19.08;71.26;100271.65;2812512;82;21089;-71
2021/10/02 09:32:15;;;;;;;12.13;9.90;;;;;;;19.08;71.18;100264.09;2786303;82;21040;-71
2021/10/02 09:36:22;;;;;;;13.50;9.38;;;;;;;19.17;71.29;100258.11;2798461;82;21039;-72
2021/10/02 09:40:25;;;;;;;10.95;8.10;;;;;;;19.23;71.52;100260.88;2772310;83;21060;-71
2021/10/02 09:44:26;;;;;;;9.18;8.33;;;;;;;19.40;72.22;100256.68;2822043;84;21024;-71
2021/10/02 09:48:31;;;;;;;12.73;8.95;;;;;;;19.71;71.01;100252.98;2819600;82;21024;-71
2021/10/02 09:52:41;;;;;;;14.25;9.00;;;;;;;19.94;70.31;100256.09;2785995;83;21127;-71
2021/10/02 09:57:07;;;;;;;14.87;10.40;;;;;;;20.11;70.70;100247.26;2759570;85;21046;-70
2021/10/02 10:01:22;;;;;;;11.40;9.55;;;;;;;20.30;70.36;100253.08;2736388;85;21693;-71
2021/10/02 10:05:29;;;;;;;10.25;9.25;;;;;;;20.47;69.84;100240.19;2739020;84;21059;-71
2021/10/02 10:09:30;;;;;;;12.73;9.75;;;;;;;20.69;69.08;100246.41;2735778;84;21891;-71
2021/10/02 10:13:32;;;;;;;12.05;10.00;;;;;;;20.73;67.68;100240.11;2780944;84;21317;-71
2021/10/02 10:17:34;;;;;;;14.33;9.85;;;;;;;20.66;67.60;100239.55;2799764;84;21396;-71
2021/10/02 10:30:54;;;;;;;14.00;10.28;;;;;;;20.85;69.19;100248.56;2744230;84;21032;-70
2021/10/02 10:34:56;;;;;;;10.55;9.43;;;;;;;21.04;68.54;100240.31;2693738;87;21197;-66
2021/10/02 10:39:04;;;;;;;11.25;9.58;;;;;;;21.10;67.54;100244.92;2735875;85;21479;-68
2021/10/02 10:43:06;;;;;;;10.43;9.13;;;;;;;21.18;67.03;100237.19;2798334;84;21059;-66
2021/10/02 10:47:09;;;;;;;10.23;8.10;;;;;;;21.28;66.43;100234.95;2796581;84;20953;-70
2021/10/02 10:51:19;;;;;;;19.27;10.50;;;;;;;21.36;66.06;100236.67;2790100;84;21070;-70
2021/10/02 11:00:16;;;;;;;13.58;8.70;;;;;;;21.45;65.06;100232.78;2784086;84;21079;-65
2021/10/02 11:04:54;;;;;;;10.10;8.98;;;;;;;21.31;65.47;100228.31;2733067;85;21224;-73
2021/10/02 11:09:35;;;;;;;8.83;7.92;;;;;;;21.44;65.79;100224.35;2727681;85;21043;-64
2021/10/02 11:13:48;;;;;;;11.00;8.45;;;;;;;21.69;65.87;100225.23;2709586;86;21147;-65
2021/10/02 11:18:04;;;;;;;11.85;9.10;;;;;;;21.88;65.34;100227.70;2733696;85;21031;-65
2021/10/02 11:26:58;;;;;;;11.10;8.18;;;;;;;21.89;63.98;100235.31;2684837;86;21084;-65
2021/10/02 11:31:19;;;;;;;11.10;9.00;;;;;;;21.92;66.17;100228.14;2661836;88;21120;-67
2021/10/02 11:35:31;;;;;;;13.03;10.55;;;;;;;22.07;64.88;100230.18;2732779;85;21025;-66
2021/10/02 11:39:33;;;;;;;11.20;8.93;;;;;;;22.19;63.62;100213.31;2743721;85;21326;-64
2021/10/02 11:43:55;;;;;;;12.07;9.55;;;;;;;22.18;63.39;100216.56;2756809;84;21651;-64
2021/10/02 11:48:21;;;;;;;10.35;8.90;;;;;;;22.29;64.50;100215.12;2749347;85;21087;-64
2021/10/02 11:52:24;;;;;;;13.08;9.68;;;;;;;22.38;63.82;100207.64;2735539;84;21047;-65
2021/10/02 11:56:30;;;;;;;9.98;8.98;;;;;;;22.47;63.98;100208.31;2708379;84;21614;-65
2021/10/02 12:01:00;;;;;;;9.80;8.90;;;;;;;22.51;63.27;100212.27;2732471;84;21143;-68
2021/10/02 12:05:15;;;;;;;11.75;8.73;;;;;;;22.48;63.05;100211.34;2703090;87;21064;-64
2021/10/02 12:09:18;;;;;;;9.95;8.58;;;;;;;22.35;61.99;100201.28;2662053;88;21009;-73
2021/10/02 12:13:35;;;;;;;10.43;9.35;;;;;;;22.14;62.95;100211.75;2733741;85;21024;-71
2021/10/02 12:22:45;;;;;;;9.25;7.45;;;;;;;22.29;62.40;100204.80;2728716;85;21122;-66
2021/10/02 12:27:10;;;;;;;22.67;10.32;;;;;;;22.32;62.82;100194.39;2730825;85;21122;-65
2021/10/02 12:31:15;;;;;;;19.75;10.58;;;;;;;22.44;62.71;100192.44;2759499;84;21053;-69
2021/10/02 12:39:53;;;;;;;14.60;9.90;;;;;;;22.63;62.00;100200.29;2706799;85;21060;-68
2021/10/02 12:43:56;;;;;;;9.73;8.73;;;;;;;22.66;62.08;100202.58;2712344;85;21048;-64
2021/10/02 12:52:47;;;;;;;16.25;9.78;;;;;;;22.47;62.18;100188.80;2704949;85;21092;-65
2021/10/02 13:02:16;;;;;;;16.07;11.38;;;;;;;22.07;62.89;100195.48;2703828;86;21082;-64
2021/10/02 13:06:18;;;;;;;10.82;8.43;;;;;;;22.18;62.85;100196.25;2742953;84;21055;-69
2021/10/02 13:10:49;;;;;;;10.60;9.08;;;;;;;22.35;63.25;100192.62;2755596;84;21054;-66
2021/10/02 13:15:14;;;;;;;13.43;9.45;;;;;;;22.43;63.54;100195.66;2770215;83;21095;-65
2021/10/02 13:19:35;;;;;;;16.62;9.45;;;;;;;22.59;61.92;100187.66;2761630;83;21048;-71
2021/10/02 13:23:40;;;;;;;9.55;7.67;;;;;;;22.71;61.88;100192.48;2759382;84;21346;-64
2021/10/02 13:27:46;;;;;;;12.17;8.43;;;;;;;22.81;61.42;100184.77;2771532;84;21070;-64
2021/10/02 13:31:49;;;;;;;12.18;9.08;;;;;;;22.78;61.35;100185.16;2747923;84;23509;-64
2021/10/02 13:36:32;;;;;;;11.35;8.85;;;;;;;22.83;61.60;100177.26;2751979;84;21117;-64
2021/10/02 13:40:40;;;;;;;9.28;7.97;;;;;;;22.79;60.68;100174.12;2784267;84;21222;-67
2021/10/02 13:44:41;;;;;;;11.33;8.85;;;;;;;22.76;60.75;100180.48;2738261;84;21244;-65
2021/10/02 13:48:44;;;;;;;12.53;10.05;;;;;;;22.73;61.18;100172.77;2743889;84;21364;-64
2021/10/02 13:52:47;;;;;;;14.85;9.28;;;;;;;22.75;61.43;100174.23;2742196;84;21046;-65
2021/10/02 13:57:16;;;;;;;9.35;8.43;;;;;;;22.83;61.62;100174.01;2749195;84;21075;-68
2021/10/02 14:01:26;;;;;;;15.93;10.72;;;;;;;22.85;61.15;100171.10;2728813;85;21135;-69
2021/10/02 14:10:16;;;;;;;12.83;10.00;;;;;;;22.86;61.72;100167.85;2745670;85;21115;-77
2021/10/02 14:14:43;;;;;;;12.82;10.88;;;;;;;22.94;61.47;100167.11;2717513;85;21280;-80
2021/10/02 14:18:44;;;;;;;12.25;8.93;;;;;;;22.90;61.02;100164.52;2742691;84;21067;-65
2021/10/02 14:23:13;;;;;;;11.90;9.25;;;;;;;22.79;61.30;100163.78;2752052;83;21063;-64
2021/10/02 14:27:25;;;;;;;15.98;12.60;;;;;;;22.64;61.14;100154.52;2762304;84;21091;-72
2021/10/02 14:31:32;;;;;;;14.65;11.48;;;;;;;22.54;61.60;100155.78;2737322;84;21048;-68
2021/10/02 14:35:34;;;;;;;11.38;9.53;;;;;;;22.45;61.78;100148.04;2740546;84;21067;-63
2021/10/02 14:44:48;;;;;;;13.08;10.32;;;;;;;22.36;62.37;100153.64;2744701;84;21050;-68
2021/10/02 14:48:50;;;;;;;14.68;10.75;;;;;;;22.35;62.02;100158.75;2762166;84;21148;-65
2021/10/02 14:53:29;;;;;;;25.72;13.75;;;;;;;22.35;63.14;100155.22;2750064;84;21015;-67
2021/10/02 14:57:35;;;;;;;14.98;11.93;;;;;;;22.35;63.02;100154.69;2736472;85;21346;-66
2021/10/02 15:01:51;;;;;;;19.50;12.95;;;;;;;22.35;62.53;100153.33;2763395;84;21059;-65
2021/10/02 15:05:52;;;;;;;12.13;10.72;;;;;;;22.35;62.81;100153.33;2729908;85;21700;-66
2021/10/02 15:14:48;;;;;;;14.80;11.63;;;;;;;22.17;62.84;100156.66;2739111;85;21077;-66
2021/10/02 15:19:43;;;;;;;18.87;14.18;;;;;;;22.05;63.38;100146.95;2680279;86;21142;-65
2021/10/02 15:23:52;;;;;;;15.90;12.73;;;;;;;21.91;63.42;100147.95;2685044;87;21089;-66
2021/10/02 15:28:16;;;;;;;19.07;13.28;;;;;;;21.79;63.84;100163.42;2740443;83;21047;-65
2021/10/02 15:32:18;;;;;;;21.87;15.32;;;;;;;21.67;64.29;100155.59;2696047;85;21226;-67
2021/10/02 15:41:26;;;;;;;19.70;14.25;;;;;;;21.45;64.90;100161.08;2745468;84;21070;-65
2021/10/02 15:45:51;;;;;;;26.52;15.13;;;;;;;21.28;65.22;100167.86;2668814;87;21127;-66
2021/10/02 15:50:15;;;;;;;28.07;14.53;;;;;;;21.09;65.57;100158.89;2658844;86;21127;-65
2021/10/02 15:54:17;;;;;;;20.43;16.27;;;;;;;20.90;65.46;100151.48;2682838;87;21019;-70
2021/10/02 15:58:20;;;;;;;22.52;15.25;;;;;;;20.69;65.44;100149.97;2677820;87;21009;-69
2021/10/02 16:03:01;;;;;;;18.32;13.22;;;;;;;20.49;65.62;100136.81;2681262;86;21119;-66
2021/10/02 16:07:05;;;;;;;19.45;13.18;;;;;;;20.31;66.14;100135.41;2640799;87;21049;-65
2021/10/02 16:11:07;;;;;;;17.67;11.45;;;;;;;20.10;66.60;100141.14;2650990;86;21079;-65
2021/10/02 16:15:16;;;;;;;14.25;11.73;;;;;;;19.94;67.14;100138.15;2647982;85;21112;-65
2021/10/02 16:19:22;;;;;;;17.48;12.80;;;;;;;19.84;67.30;100139.78;2745808;84;21675;-66
2021/10/02 16:23:28;;;;;;;17.32;13.25;;;;;;;19.71;67.77;100145.05;2737741;84;21103;-66
2021/10/02 16:27:33;;;;;;;17.05;13.93;;;;;;;19.56;68.29;100149.13;2735134;84;21520;-66
2021/10/02 16:31:35;;;;;;;19.35;14.75;;;;;;;19.37;68.87;100146.48;2712334;85;21433;-66
2021/10/02 16:35:42;;;;;;;19.37;14.33;;;;;;;19.21;69.55;100145.64;2734167;84;21050;-66
2021/10/02 16:40:05;;;;;;;15.72;13.65;;;;;;;19.05;69.86;100145.33;2735682;84;21206;-64
2021/10/02 16:44:33;;;;;;;16.32;13.98;;;;;;;18.97;69.93;100148.91;2707982;84;21119;-64
2021/10/02 16:49:07;;;;;;;17.17;13.58;;;;;;;18.92;70.03;100144.59;2740113;84;21063;-65
2021/10/02 16:53:16;;;;;;;18.62;15.60;;;;;;;18.88;70.10;100143.30;2750175;84;21142;-70
2021/10/02 17:02:43;;;;;;;22.90;15.00;;;;;;;18.75;70.42;100144.42;2745159;84;21035;-69
2021/10/02 17:06:45;;;;;;;16.27;14.25;;;;;;;18.67;70.68;100145.34;2734638;84;21052;-71
2021/10/02 17:15:34;;;;;;;37.10;22.32;;;;;;;18.61;71.25;100144.20;2713705;86;21341;-71
2021/10/02 17:24:30;;;;;;;40.80;23.70;;;;;;;18.12;72.60;100147.62;2698779;85;21203;-64
2021/10/02 17:28:33;;;;;;;37.53;23.95;;;;;;;17.92;73.46;100147.20;2689490;86;21336;-67
2021/10/02 17:32:36;;;;;;;29.12;21.57;;;;;;;17.75;74.12;100145.63;2688040;86;21358;-64
2021/10/02 17:36:38;;;;;;;27.77;19.80;;;;;;;17.63;74.53;100139.80;2744090;84;21039;-66
2021/10/02 17:40:40;;;;;;;28.95;20.27;;;;;;;17.49;75.21;100146.28;2752827;84;21178;-67
2021/10/02 17:44:42;;;;;;;29.37;20.50;;;;;;;17.41;75.62;100142.26;2736746;84;21094;-64
2021/10/02 17:48:44;;;;;;;24.10;20.05;;;;;;;17.35;75.71;100142.96;2751196;84;20991;-65
2021/10/02 17:53:35;;;;;;;29.63;18.35;;;;;;;17.28;75.80;100140.95;2751458;84;21509;-67
2021/10/02 17:58:25;;;;;;;24.85;17.67;;;;;;;17.21;75.88;100142.66;2731396;85;21067;-64
2021/10/02 18:02:45;;;;;;;22.35;17.60;;;;;;;17.11;76.03;100149.58;2704879;85;21202;-64
2021/10/02 18:06:47;;;;;;;28.05;19.62;;;;;;;17.03;76.01;100152.30;2682313;86;21160;-64
2021/10/02 18:11:00;;;;;;;46.45;27.55;;;;;;;16.95;75.98;100154.47;2690085;86;21258;-64
2021/10/02 18:15:05;;;;;;;31.00;23.70;;;;;;;16.82;76.06;100150.11;2631427;88;21042;-67
2021/10/02 18:19:13;;;;;;;27.67;18.73;;;;;;;16.73;76.09;100151.97;2674397;86;21142;-65
2021/10/02 18:23:19;;;;;;;27.98;17.42;;;;;;;16.66;75.94;100153.66;2649904;88;21016;-72
2021/10/02 18:27:29;;;;;;;23.05;15.65;;;;;;;16.57;75.66;100154.17;2704949;85;21011;-68
2021/10/02 18:31:30;;;;;;;23.12;14.33;;;;;;;16.48;75.53;100151.14;2705769;86;21198;-65
2021/10/02 18:35:33;;;;;;;20.12;15.40;;;;;;;16.47;75.08;100157.52;2755949;84;21046;-67
2021/10/02 18:39:35;;;;;;;19.62;13.58;;;;;;;16.43;74.77;100157.03;2691013;86;22794;-66
2021/10/02 18:48:29;;;;;;;14.23;11.45;;;;;;;16.35;74.57;100157.86;2641348;88;21296;-64
2021/10/02 18:52:31;;;;;;;16.15;12.20;;;;;;;16.34;74.27;100160.22;2698060;86;21043;-67
2021/10/02 18:56:33;;;;;;;17.10;13.38;;;;;;;16.33;73.90;100159.88;2692095;86;21098;-69
2021/10/02 19:00:35;;;;;;;14.85;12.10;;;;;;;16.30;73.41;100153.48;2690877;86;21071;-64
2021/10/02 19:04:38;;;;;;;21.70;11.90;;;;;;;16.33;73.02;100154.52;2694416;86;21151;-63
2021/10/02 19:08:41;;;;;;;18.48;13.88;;;;;;;16.39;72.68;100159.69;2693531;86;21047;-64
2021/10/02 19:12:45;;;;;;;21.93;13.83;;;;;;;16.44;72.41;100156.52;2691933;86;21305;-66
2021/10/02 19:16:47;;;;;;;19.07;13.20;;;;;;;16.47;71.98;100152.14;2692115;86;21020;-66
2021/10/02 19:21:13;;;;;;;16.07;11.20;;;;;;;16.44;71.83;100149.80;2691770;87;21277;-64
2021/10/02 19:25:14;;;;;;;17.50;10.85;;;;;;;16.41;71.79;100147.80;2716597;85;21040;-64
2021/10/02 19:30:03;;;;;;;18.95;12.80;;;;;;;16.39;71.40;100143.09;2735926;84;20968;-65
2021/10/02 19:34:42;;;;;;;21.57;15.45;;;;;;;16.29;72.29;100143.75;2735826;85;21016;-69
2021/10/02 19:38:46;;;;;;;17.92;12.68;;;;;;;16.08;72.92;100125.47;2661684;87;21095;-68
2021/10/02 19:42:49;;;;;;;14.73;11.97;;;;;;;15.89;73.50;100126.11;2677121;88;21056;-67
2021/10/02 19:47:04;;;;;;;17.23;12.70;;;;;;;15.80;73.75;100118.52;2730919;85;21083;-68
2021/10/02 19:51:16;;;;;;;19.00;11.00;;;;;;;15.75;73.65;100115.49;2734049;84;20992;-68
2021/10/02 19:55:19;;;;;;;14.78;10.10;;;;;;;15.71;73.51;100110.09;2736080;84;21044;-64
2021/10/02 20:00:09;;;;;;;13.98;11.60;;;;;;;15.70;73.38;100109.76;2747245;84;21067;-64
2021/10/02 20:04:12;;;;;;;24.35;13.68;;;;;;;15.67;73.32;100115.45;2736590;84;22332;-71
2021/10/02 20:08:29;;;;;;;19.90;11.00;;;;;;;15.60;73.29;100111.76;2746351;84;21438;-64
2021/10/02 20:12:53;;;;;;;15.85;10.58;;;;;;;15.53;73.47;100114.25;2745296;84;21231;-64
2021/10/02 20:17:11;;;;;;;19.90;12.93;;;;;;;15.45;73.67;100111.03;2731755;85;21000;-65
2021/10/02 20:21:14;;;;;;;17.32;10.90;;;;;;;15.34;73.72;100121.55;2735765;85;21076;-66
2021/10/02 20:26:11;;;;;;;16.32;11.40;;;;;;;15.23;73.97;100113.30;2734730;85;20976;-67
2021/10/02 20:30:14;;;;;;;;;;;;;;;15.14;74.13;100108.91;2755208;84;21054;-68
2021/10/02 20:34:31;;;;;;;17.80;11.50;;;;;;;15.06;74.25;100112.88;2751527;84;20175;-64
2021/10/02 20:43:39;;;;;;;15.23;10.75;;;;;;;14.90;74.43;100119.81;2734738;85;21023;-64
2021/10/02 20:52:13;;;;;;;10.03;9.03;;;;;;;14.80;74.37;100119.91;2798689;84;21102;-64
2021/10/02 20:56:18;;;;;;;16.70;10.82;;;;;;;14.82;74.23;100122.45;2790424;84;21031;-64
2021/10/02 21:00:26;;;;;;;13.45;9.90;;;;;;;14.84;73.98;100111.08;2814965;84;21070;-64
2021/10/02 21:04:33;;;;;;;15.88;12.18;;;;;;;14.85;73.84;100104.72;2781225;84;21074;-68
2021/10/02 21:08:37;;;;;;;21.45;13.55;;;;;;;14.93;73.39;100101.25;2766552;84;21099;-64